createdAt,value
2022-09-12T00:01:19.652Z,17.75
2022-09-12T00:03:46.976Z,17.59
2022-09-12T00:06:33.926Z,17.59
2022-09-12T00:09:06.101Z,17.56
2022-09-12T00:11:36.441Z,17.53
2022-09-12T00:14:04.667Z,17.53
2022-09-12T00:16:33.846Z,17.40
2022-09-12T00:19:01.315Z,17.71
2022-09-12T00:21:28.048Z,17.87
2022-09-12T00:23:55.206Z,17.84
2022-09-12T00:26:22.338Z,17.64
2022-09-12T00:28:49.676Z,17.44
2022-09-12T00:31:19.277Z,17.35
2022-09-12T00:33:46.820Z,17.30
2022-09-12T00:36:16.603Z,17.31
2022-09-12T00:38:44.460Z,17.38
2022-09-12T00:41:18.502Z,17.44
2022-09-12T00:43:58.300Z,17.34
2022-09-12T00:46:46.889Z,17.18
2022-09-12T00:49:34.793Z,17.27
2022-09-12T00:52:09.737Z,17.41
2022-09-12T00:54:46.363Z,17.45
2022-09-12T00:57:16.170Z,17.29
2022-09-12T00:59:48.848Z,17.34
2022-09-12T01:02:15.798Z,17.24
2022-09-12T01:04:44.498Z,17.30
2022-09-12T01:07:12.674Z,17.34
2022-09-12T01:09:41.678Z,17.22
2022-09-12T01:12:08.670Z,16.96
2022-09-12T01:14:35.699Z,16.90
2022-09-12T01:17:02.494Z,17.00
2022-09-12T01:19:47.898Z,17.05
2022-09-12T01:22:31.738Z,17.20
2022-09-12T01:25:29.355Z,17.16
2022-09-12T01:28:25.453Z,17.02
2022-09-12T01:31:05.763Z,16.92
2022-09-12T01:33:41.083Z,16.83
2022-09-12T01:36:24.130Z,17.11
2022-09-12T01:39:00.473Z,17.11
2022-09-12T01:41:29.732Z,16.93
2022-09-12T01:43:59.392Z,16.97
2022-09-12T01:46:41.334Z,17.07
2022-09-12T01:49:23.012Z,17.00
2022-09-12T01:52:10.938Z,16.96
2022-09-12T01:54:47.963Z,16.83
2022-09-12T01:57:22.543Z,16.82
2022-09-12T01:59:54.227Z,16.91
2022-09-12T02:02:38.479Z,16.74
2022-09-12T02:05:18.517Z,16.69
2022-09-12T02:07:50.365Z,16.57
2022-09-12T02:10:32.751Z,16.61
2022-09-12T02:13:32.277Z,16.64
2022-09-12T02:16:05.915Z,16.58
2022-09-12T02:18:34.147Z,16.51
2022-09-12T02:21:01.514Z,16.62
2022-09-12T02:23:31.314Z,16.72
2022-09-12T02:26:06.505Z,16.85
2022-09-12T02:28:37.873Z,16.67
2022-09-12T02:31:20.821Z,16.55
2022-09-12T02:33:59.783Z,16.47
2022-09-12T02:36:43.408Z,16.57
2022-09-12T02:39:10.084Z,16.59
2022-09-12T02:41:37.046Z,16.44
2022-09-12T02:44:04.690Z,16.41
2022-09-12T02:46:48.611Z,16.35
2022-09-12T02:49:17.140Z,16.41
2022-09-12T02:51:45.565Z,16.33
2022-09-12T02:54:14.465Z,16.46
2022-09-12T02:56:43.757Z,16.44
2022-09-12T02:59:15.742Z,16.48
2022-09-12T03:01:58.808Z,16.62
2022-09-12T03:04:34.416Z,16.66
2022-09-12T03:07:19.265Z,16.39
2022-09-12T03:10:19.802Z,16.37
2022-09-12T03:12:49.406Z,16.20
2022-09-12T03:15:33.949Z,16.51
2022-09-12T03:18:19.708Z,16.56
2022-09-12T03:21:09.585Z,16.51
2022-09-12T03:23:51.484Z,16.53
2022-09-12T03:26:31.072Z,16.56
2022-09-12T03:28:59.314Z,16.48
2022-09-12T03:31:26.069Z,16.26
2022-09-12T03:33:52.662Z,16.18
2022-09-12T03:36:25.231Z,16.29
2022-09-12T03:38:52.851Z,16.19
2022-09-12T03:41:19.912Z,16.29
2022-09-12T03:43:47.049Z,16.35
2022-09-12T03:46:14.190Z,16.17
2022-09-12T03:48:41.688Z,16.02
2022-09-12T03:51:10.211Z,16.07
2022-09-12T03:53:36.964Z,15.97
2022-09-12T03:56:08.733Z,16.11
2022-09-12T03:58:36.315Z,16.03
2022-09-12T04:01:12.481Z,16.18
2022-09-12T04:03:44.040Z,16.25
2022-09-12T04:06:12.518Z,16.21
2022-09-12T04:08:39.278Z,16.18
2022-09-12T04:11:14.816Z,16.10
2022-09-12T04:13:44.083Z,16.11
2022-09-12T04:16:11.468Z,16.01
2022-09-12T04:18:38.566Z,16.08
2022-09-12T04:21:07.998Z,16.19
2022-09-12T04:23:35.391Z,16.14
2022-09-12T04:26:03.418Z,16.06
2022-09-12T04:28:30.278Z,16.18
2022-09-12T04:31:01.813Z,16.02
2022-09-12T04:33:28.434Z,16.14
2022-09-12T04:35:55.018Z,16.11
2022-09-12T04:38:21.666Z,16.04
2022-09-12T04:40:49.279Z,16.09
2022-09-12T04:43:17.788Z,16.06
2022-09-12T04:45:44.490Z,16.26
2022-09-12T04:48:11.302Z,16.36
2022-09-12T04:50:38.129Z,16.20
2022-09-12T04:53:04.756Z,15.92
2022-09-12T04:55:35.460Z,15.95
2022-09-12T04:58:02.369Z,15.92
2022-09-12T05:00:29.033Z,15.92
2022-09-12T05:02:55.865Z,16.02
2022-09-12T05:05:22.632Z,15.97
2022-09-12T05:07:49.297Z,15.99
2022-09-12T05:10:16.388Z,15.93
2022-09-12T05:12:43.082Z,15.97
2022-09-12T05:15:10.024Z,15.81
2022-09-12T05:17:36.744Z,15.91
2022-09-12T05:20:04.066Z,15.90
2022-09-12T05:22:30.847Z,15.68
2022-09-12T05:24:57.462Z,15.70
2022-09-12T05:27:24.390Z,15.68
2022-09-12T05:29:51.379Z,15.72
2022-09-12T05:32:18.022Z,15.72
2022-09-12T05:34:44.818Z,15.73
2022-09-12T05:37:11.371Z,15.76
2022-09-12T05:39:37.976Z,15.81
2022-09-12T05:42:04.896Z,15.86
2022-09-12T05:44:31.584Z,15.96
2022-09-12T05:46:58.176Z,15.96
2022-09-12T05:49:24.875Z,15.71
2022-09-12T05:51:51.610Z,15.89
2022-09-12T05:54:20.345Z,16.00
2022-09-12T05:56:48.266Z,15.94
2022-09-12T05:59:18.371Z,16.08
2022-09-12T06:01:45.732Z,16.19
2022-09-12T06:04:12.880Z,16.01
2022-09-12T06:06:42.432Z,15.91
2022-09-12T06:09:10.211Z,15.90
2022-09-12T06:11:42.751Z,15.86
2022-09-12T06:14:11.596Z,15.86
2022-09-12T06:16:38.848Z,15.79
2022-09-12T06:19:15.901Z,15.87
2022-09-12T06:21:42.623Z,15.77
2022-09-12T06:24:09.332Z,15.76
2022-09-12T06:26:36.423Z,15.82
2022-09-12T06:29:03.744Z,15.99
2022-09-12T06:31:33.767Z,16.25
2022-09-12T06:34:03.080Z,16.42
2022-09-12T06:36:48.904Z,16.74
2022-09-12T06:39:17.928Z,16.84
2022-09-12T06:41:45.245Z,16.97
2022-09-12T06:44:22.271Z,17.10
2022-09-12T06:46:49.381Z,17.18
2022-09-12T06:49:17.546Z,17.28
2022-09-12T06:51:44.392Z,17.46
2022-09-12T06:54:16.717Z,17.64
2022-09-12T06:56:44.152Z,17.71
2022-09-12T06:59:10.955Z,17.57
2022-09-12T07:01:37.943Z,17.62
2022-09-12T07:04:04.970Z,17.92
2022-09-12T07:06:37.267Z,17.87
2022-09-12T07:09:06.000Z,18.05
2022-09-12T07:11:35.235Z,18.17
2022-09-12T07:14:03.805Z,18.43
2022-09-12T07:16:31.401Z,18.39
2022-09-12T07:19:00.516Z,18.30
2022-09-12T07:21:28.228Z,18.46
2022-09-12T07:23:57.708Z,18.65
2022-09-12T07:26:27.132Z,18.76
2022-09-12T07:29:07.959Z,18.83
2022-09-12T07:31:42.268Z,19.04
2022-09-12T07:34:09.237Z,18.97
2022-09-12T07:36:36.336Z,19.04
2022-09-12T07:39:03.444Z,19.02
2022-09-12T07:41:31.929Z,19.58
2022-09-12T07:44:00.311Z,19.56
2022-09-12T07:46:29.518Z,19.19
2022-09-12T07:48:58.246Z,19.02
2022-09-12T07:51:26.480Z,19.26
2022-09-12T07:53:53.137Z,19.64
2022-09-12T07:56:21.618Z,19.72
2022-09-12T07:58:50.283Z,19.63
2022-09-12T08:01:19.722Z,19.81
2022-09-12T08:03:53.370Z,19.99
2022-09-12T08:06:24.116Z,20.11
2022-09-12T08:08:52.519Z,20.06
2022-09-12T08:11:21.201Z,20.19
2022-09-12T08:13:53.062Z,20.18
2022-09-12T08:16:23.538Z,20.13
2022-09-12T08:18:50.482Z,20.22
2022-09-12T08:21:26.100Z,20.51
2022-09-12T08:23:55.214Z,20.59
2022-09-12T08:26:22.080Z,20.59
2022-09-12T08:28:49.643Z,20.89
2022-09-12T08:31:19.647Z,20.70
2022-09-12T08:33:46.470Z,20.68
2022-09-12T08:36:17.244Z,20.74
2022-09-12T08:38:46.220Z,20.73
2022-09-12T08:41:18.716Z,21.04
2022-09-12T08:43:52.024Z,20.91
2022-09-12T08:46:28.809Z,21.09
2022-09-12T08:48:58.261Z,21.24
2022-09-12T08:51:25.404Z,21.16
2022-09-12T08:53:55.900Z,21.25
2022-09-12T08:56:23.155Z,21.52
2022-09-12T08:58:49.969Z,21.88
2022-09-12T09:01:32.650Z,21.84
2022-09-12T09:04:28.114Z,22.09
2022-09-12T09:07:07.198Z,22.31
2022-09-12T09:09:50.018Z,22.03
2022-09-12T09:12:36.436Z,22.12
2022-09-12T09:15:35.949Z,22.08
2022-09-12T09:18:25.212Z,22.21
2022-09-12T09:21:02.592Z,22.38
2022-09-12T09:23:47.093Z,22.11
2022-09-12T09:26:40.460Z,22.20
2022-09-12T09:29:17.769Z,22.21
2022-09-12T09:31:49.140Z,22.10
2022-09-12T09:34:21.131Z,22.28
2022-09-12T09:37:16.238Z,22.44
2022-09-12T09:40:18.123Z,22.54
2022-09-12T09:42:57.027Z,22.36
2022-09-12T09:45:27.628Z,22.52
2022-09-12T09:48:03.678Z,22.51
2022-09-12T09:50:30.471Z,22.51
2022-09-12T09:52:59.977Z,22.60
2022-09-12T09:55:34.595Z,22.36
2022-09-12T09:58:01.176Z,22.36
2022-09-12T10:00:33.861Z,22.42
2022-09-12T10:03:03.226Z,22.48
2022-09-12T10:05:31.337Z,22.55
2022-09-12T10:07:58.723Z,22.70
2022-09-12T10:10:27.135Z,22.69
2022-09-12T10:13:18.233Z,22.34
2022-09-12T10:16:00.887Z,22.27
2022-09-12T10:18:39.751Z,22.62
2022-09-12T10:21:20.641Z,22.55
2022-09-12T10:23:51.346Z,22.84
2022-09-12T10:26:22.637Z,22.76
2022-09-12T10:28:56.535Z,22.73
2022-09-12T10:31:36.023Z,23.03
2022-09-12T10:34:02.735Z,23.13
2022-09-12T10:36:38.401Z,23.09
2022-09-12T10:39:06.876Z,23.01
2022-09-12T10:41:41.461Z,23.07
2022-09-12T10:44:14.628Z,22.95
2022-09-12T10:46:42.122Z,23.00
2022-09-12T10:49:26.995Z,22.84
2022-09-12T10:51:55.184Z,22.81
2022-09-12T10:54:26.006Z,22.88
2022-09-12T10:56:59.932Z,22.82
2022-09-12T11:00:02.342Z,22.94
2022-09-12T11:02:41.976Z,22.99
2022-09-12T11:05:22.910Z,22.96
2022-09-12T11:08:14.364Z,23.12
2022-09-12T11:10:44.587Z,23.04
2022-09-12T11:13:29.976Z,23.07
2022-09-12T11:16:50.495Z,23.15
2022-09-12T11:19:33.779Z,23.17
2022-09-12T11:22:18.919Z,23.02
2022-09-12T11:25:14.312Z,22.98
2022-09-12T11:27:51.528Z,22.92
2022-09-12T11:30:18.446Z,23.18
2022-09-12T11:32:56.038Z,23.12
2022-09-12T11:35:31.545Z,23.17
2022-09-12T11:38:28.475Z,23.02
2022-09-12T11:41:04.757Z,22.99
2022-09-12T11:43:49.414Z,23.04
2022-09-12T11:46:38.440Z,23.13
2022-09-12T11:49:13.498Z,23.00
2022-09-12T11:51:53.650Z,23.12
2022-09-12T11:54:41.571Z,23.05
2022-09-12T11:57:16.895Z,23.07
2022-09-12T11:59:49.920Z,23.22
2022-09-12T12:02:27.819Z,23.03
2022-09-12T12:05:03.513Z,23.10
2022-09-12T12:07:45.414Z,23.00
2022-09-12T12:10:26.999Z,23.17
2022-09-12T12:12:56.107Z,23.26
2022-09-12T12:15:25.322Z,23.21
2022-09-12T12:18:08.283Z,23.25
2022-09-12T12:20:36.035Z,23.08
2022-09-12T12:23:03.975Z,23.02
2022-09-12T12:25:55.762Z,22.87
2022-09-12T12:28:41.280Z,22.77
2022-09-12T12:31:09.843Z,22.97
2022-09-12T12:33:39.443Z,23.12
2022-09-12T12:36:10.359Z,23.00
2022-09-12T12:38:39.196Z,23.03
2022-09-12T12:41:25.780Z,23.02
2022-09-12T12:43:56.219Z,23.06
2022-09-12T12:46:25.471Z,22.98
2022-09-12T12:48:56.672Z,23.07
2022-09-12T12:51:31.875Z,23.03
2022-09-12T12:54:01.038Z,23.11
2022-09-12T12:56:42.389Z,22.98
2022-09-12T12:59:20.055Z,23.01
2022-09-12T13:01:54.962Z,22.96
2022-09-12T13:04:25.911Z,23.01
2022-09-12T13:06:57.701Z,23.27
2022-09-12T13:09:30.831Z,23.33
2022-09-12T13:12:05.069Z,23.26
2022-09-12T13:14:50.564Z,23.15
2022-09-12T13:17:26.001Z,23.16
2022-09-12T13:20:30.551Z,23.32
2022-09-12T13:22:58.161Z,23.44
2022-09-12T13:25:36.524Z,23.47
2022-09-12T13:28:14.878Z,23.39
2022-09-12T13:30:54.807Z,23.33
2022-09-12T13:33:36.642Z,23.52
2022-09-12T13:36:09.862Z,23.51
2022-09-12T13:38:57.779Z,23.77
2022-09-12T13:41:26.981Z,23.64
2022-09-12T13:43:53.907Z,23.53
2022-09-12T13:46:33.905Z,23.73
2022-09-12T13:49:06.998Z,23.87
2022-09-12T13:51:33.992Z,23.76
2022-09-12T13:54:04.602Z,23.98
2022-09-12T13:56:31.792Z,24.01
2022-09-12T13:59:01.005Z,24.06
2022-09-12T14:01:45.824Z,24.03
2022-09-12T14:04:43.560Z,23.89
2022-09-12T14:07:25.548Z,24.08
2022-09-12T14:09:58.749Z,24.10
2022-09-12T14:12:36.403Z,24.35
2022-09-12T14:15:03.692Z,24.23
2022-09-12T14:17:36.684Z,24.44
2022-09-12T14:20:18.500Z,24.72
2022-09-12T14:22:49.342Z,24.96
2022-09-12T14:25:24.422Z,24.94
2022-09-12T14:27:56.593Z,24.99
2022-09-12T14:30:32.441Z,25.18
2022-09-12T14:33:11.294Z,25.31
2022-09-12T14:35:45.095Z,25.44
2022-09-12T14:38:11.799Z,25.77
2022-09-12T14:40:48.546Z,25.80
2022-09-12T14:43:28.284Z,25.72
2022-09-12T14:45:59.550Z,25.88
2022-09-12T14:48:29.783Z,26.13
2022-09-12T14:50:56.524Z,26.08
2022-09-12T14:53:30.363Z,26.33
2022-09-12T14:56:09.831Z,26.31
2022-09-12T14:58:37.929Z,26.54
2022-09-12T15:01:07.998Z,26.85
2022-09-12T15:03:51.827Z,26.95
2022-09-12T15:06:31.256Z,26.86
2022-09-12T15:09:02.163Z,26.59
2022-09-12T15:11:29.551Z,26.22
2022-09-12T15:13:56.659Z,25.50
2022-09-12T15:16:23.339Z,25.38
2022-09-12T15:18:50.094Z,24.82
2022-09-12T15:21:19.350Z,24.68
2022-09-12T15:23:49.681Z,24.80
2022-09-12T15:26:22.467Z,24.77
2022-09-12T15:28:50.377Z,24.64
2022-09-12T15:31:30.599Z,24.65
2022-09-12T15:34:00.021Z,24.78
2022-09-12T15:36:28.732Z,24.83
2022-09-12T15:38:55.667Z,24.65
2022-09-12T15:41:30.906Z,24.33
2022-09-12T15:43:57.782Z,24.00
2022-09-12T15:46:24.558Z,24.09
2022-09-12T15:48:51.169Z,24.20
2022-09-12T15:51:20.147Z,24.09
2022-09-12T15:53:48.379Z,24.03
2022-09-12T15:56:17.605Z,24.04
2022-09-12T15:58:57.622Z,23.94
2022-09-12T16:01:26.177Z,23.88
2022-09-12T16:03:52.786Z,23.86
2022-09-12T16:06:19.425Z,24.28
2022-09-12T16:08:46.123Z,24.04
2022-09-12T16:11:22.457Z,23.93
2022-09-12T16:13:49.619Z,23.81
2022-09-12T16:16:16.286Z,23.79
2022-09-12T16:18:43.330Z,23.72
2022-09-12T16:21:14.878Z,23.56
2022-09-12T16:23:43.625Z,23.65
2022-09-12T16:26:10.507Z,23.74
2022-09-12T16:28:37.441Z,23.81
2022-09-12T16:31:06.996Z,23.74
2022-09-12T16:33:34.754Z,23.75
2022-09-12T16:36:03.357Z,23.76
2022-09-12T16:38:31.149Z,23.69
2022-09-12T16:41:02.588Z,23.73
2022-09-12T16:43:30.620Z,23.47
2022-09-12T16:46:05.429Z,23.79
2022-09-12T16:48:33.598Z,23.64
2022-09-12T16:51:03.307Z,23.66
2022-09-12T16:53:31.538Z,23.53
2022-09-12T16:55:58.344Z,23.31
2022-09-12T16:58:25.201Z,23.25
2022-09-12T17:01:07.299Z,23.17
2022-09-12T17:03:35.767Z,23.27
2022-09-12T17:06:08.872Z,23.19
2022-09-12T17:08:41.228Z,23.05
2022-09-12T17:11:10.417Z,23.04
2022-09-12T17:14:00.601Z,22.98
2022-09-12T17:16:26.492Z,22.86
2022-09-12T17:18:54.621Z,22.95
2022-09-12T17:21:22.472Z,22.92
2022-09-12T17:23:49.858Z,22.84
2022-09-12T17:26:16.766Z,22.78
2022-09-12T17:28:44.424Z,22.72
2022-09-12T17:31:14.548Z,22.77
2022-09-12T17:33:44.055Z,22.75
2022-09-12T17:36:15.081Z,22.70
2022-09-12T17:38:42.906Z,22.69
2022-09-12T17:41:16.165Z,22.73
2022-09-12T17:43:45.988Z,22.69
2022-09-12T17:46:13.531Z,22.70
2022-09-12T17:48:41.572Z,22.67
2022-09-12T17:51:09.862Z,22.65
2022-09-12T17:53:36.671Z,22.62
2022-09-12T17:56:05.272Z,22.62
2022-09-12T17:58:33.194Z,22.53
2022-09-12T18:01:20.909Z,22.50
2022-09-12T18:03:48.484Z,22.46
2022-09-12T18:06:15.283Z,22.37
2022-09-12T18:08:43.520Z,22.31
2022-09-12T18:11:10.731Z,22.35
2022-09-12T18:13:37.630Z,22.29
2022-09-12T18:16:08.128Z,22.27
2022-09-12T18:18:36.193Z,22.17
2022-09-12T18:21:05.140Z,22.11
2022-09-12T18:23:32.177Z,22.11
2022-09-12T18:26:08.958Z,22.05
2022-09-12T18:28:38.449Z,22.08
2022-09-12T18:31:11.623Z,21.99
2022-09-12T18:33:38.647Z,21.97
2022-09-12T18:36:07.052Z,22.01
2022-09-12T18:38:35.270Z,22.03
2022-09-12T18:41:10.935Z,22.28
2022-09-12T18:43:37.980Z,22.19
2022-09-12T18:46:11.318Z,22.11
2022-09-12T18:48:38.599Z,22.03
2022-09-12T18:51:10.662Z,22.02
2022-09-12T18:53:39.988Z,22.02
2022-09-12T18:56:12.241Z,21.99
2022-09-12T18:58:42.239Z,21.91
2022-09-12T19:01:21.361Z,21.84
2022-09-12T19:03:48.466Z,21.85
2022-09-12T19:06:21.438Z,21.84
2022-09-12T19:08:50.212Z,21.80
2022-09-12T19:11:17.407Z,21.74
2022-09-12T19:13:46.117Z,21.71
2022-09-12T19:16:16.499Z,21.75
2022-09-12T19:18:44.441Z,21.70
2022-09-12T19:21:17.649Z,21.72
2022-09-12T19:23:45.739Z,21.77
2022-09-12T19:26:14.188Z,21.77
2022-09-12T19:28:42.447Z,21.86
2022-09-12T19:31:12.510Z,21.70
2022-09-12T19:33:41.044Z,21.67
2022-09-12T19:36:33.716Z,21.63
2022-09-12T19:38:58.998Z,21.52
2022-09-12T19:41:26.152Z,21.55
2022-09-12T19:43:53.275Z,21.46
2022-09-12T19:46:22.279Z,21.49
2022-09-12T19:48:49.798Z,21.43
2022-09-12T19:51:17.693Z,21.42
2022-09-12T19:53:44.938Z,21.40
2022-09-12T19:56:13.696Z,21.35
2022-09-12T19:58:45.547Z,21.33
2022-09-12T20:01:28.496Z,21.32
2022-09-12T20:03:58.318Z,21.34
2022-09-12T20:06:26.298Z,21.32
2022-09-12T20:08:53.788Z,21.36
2022-09-12T20:11:23.932Z,21.26
2022-09-12T20:13:51.648Z,21.24
2022-09-12T20:16:28.772Z,21.20
2022-09-12T20:19:01.377Z,21.19
2022-09-12T20:21:31.617Z,21.10
2022-09-12T20:24:04.722Z,21.33
2022-09-12T20:26:32.337Z,21.26
2022-09-12T20:28:59.905Z,21.24
2022-09-12T20:31:26.837Z,21.49
2022-09-12T20:33:55.023Z,21.12
2022-09-12T20:36:21.986Z,21.00
2022-09-12T20:38:54.301Z,20.98
2022-09-12T20:41:24.821Z,20.93
2022-09-12T20:43:56.479Z,20.96
2022-09-12T20:46:24.821Z,20.82
2022-09-12T20:48:51.776Z,20.78
2022-09-12T20:51:19.801Z,20.77
2022-09-12T20:53:47.164Z,20.73
2022-09-12T20:56:15.057Z,20.70
2022-09-12T20:58:44.363Z,20.74
2022-09-12T21:01:13.650Z,20.69
2022-09-12T21:03:42.263Z,20.63
2022-09-12T21:06:10.517Z,20.66
2022-09-12T21:08:37.659Z,20.58
2022-09-12T21:11:05.275Z,20.60
2022-09-12T21:13:32.278Z,20.92
2022-09-12T21:16:07.259Z,21.01
2022-09-12T21:18:35.195Z,20.65
2022-09-12T21:21:02.242Z,20.81
2022-09-12T21:23:29.923Z,20.81
2022-09-12T21:25:56.710Z,20.77
2022-09-12T21:28:23.487Z,20.63
2022-09-12T21:30:51.103Z,20.88
2022-09-12T21:33:19.586Z,20.73
2022-09-12T21:35:47.524Z,20.51
2022-09-12T21:38:17.478Z,20.38
2022-09-12T21:40:44.531Z,20.33
2022-09-12T21:43:12.999Z,20.24
2022-09-12T21:45:40.677Z,20.24
2022-09-12T21:48:07.923Z,20.17
2022-09-12T21:50:35.118Z,20.17
2022-09-12T21:53:02.043Z,20.16
2022-09-12T21:55:28.749Z,20.19
2022-09-12T21:57:55.585Z,20.16
2022-09-12T22:00:23.115Z,20.17
2022-09-12T22:02:49.797Z,20.15
2022-09-12T22:05:17.297Z,20.23
2022-09-12T22:07:44.246Z,20.21
2022-09-12T22:10:11.123Z,20.15
2022-09-12T22:12:37.751Z,20.19
2022-09-12T22:15:22.964Z,20.23
2022-09-12T22:17:51.914Z,20.14
2022-09-12T22:20:18.817Z,20.14
2022-09-12T22:23:04.153Z,20.14
2022-09-12T22:25:31.007Z,20.10
2022-09-12T22:27:58.340Z,20.14
2022-09-12T22:30:27.193Z,20.14
2022-09-12T22:32:54.063Z,20.20
2022-09-12T22:35:20.979Z,20.10
2022-09-12T22:37:48.024Z,20.12
2022-09-12T22:40:15.627Z,20.09
2022-09-12T22:42:42.625Z,19.98
2022-09-12T22:45:09.712Z,19.95
2022-09-12T22:47:36.516Z,19.99
2022-09-12T22:50:03.736Z,20.15
2022-09-12T22:52:30.410Z,20.48
2022-09-12T22:54:57.247Z,20.44
2022-09-12T22:57:23.954Z,20.28
2022-09-12T22:59:50.593Z,20.39
2022-09-12T23:02:17.329Z,20.39
2022-09-12T23:04:44.147Z,20.10
2022-09-12T23:07:11.036Z,19.92
2022-09-12T23:09:37.814Z,19.92
2022-09-12T23:12:04.597Z,19.84
2022-09-12T23:14:31.297Z,19.81
2022-09-12T23:16:57.950Z,19.85
2022-09-12T23:19:24.532Z,19.58
2022-09-12T23:21:51.120Z,19.54
2022-09-12T23:24:17.867Z,19.58
2022-09-12T23:26:44.485Z,19.53
2022-09-12T23:29:11.383Z,19.49
2022-09-12T23:31:38.132Z,19.50
2022-09-12T23:34:06.240Z,19.49
2022-09-12T23:36:33.614Z,19.57
2022-09-12T23:39:00.400Z,19.68
2022-09-12T23:41:27.426Z,19.65
2022-09-12T23:43:54.107Z,19.62
2022-09-12T23:46:21.234Z,19.54
2022-09-12T23:48:48.939Z,19.54
2022-09-12T23:51:16.317Z,19.43
2022-09-12T23:53:43.230Z,19.46
2022-09-12T23:56:10.748Z,19.42
2022-09-12T23:58:37.604Z,19.40
